sensor_id;sensor_type;location;lat;lon;timestamp;P1;durP1;ratioP1;P2;durP2;ratioP2
16262;SDS011;8239;48.594;8.598;2023-08-24T00:01:58;9.82;;;8.93;;
16262;SDS011;8239;48.594;8.598;2023-08-24T00:04:25;10.55;;;9.45;;
16262;SDS011;8239;48.594;8.598;2023-08-24T00:06:52;10.23;;;9.38;;
16262;SDS011;8239;48.594;8.598;2023-08-24T00:09:19;11.82;;;9.63;;
16262;SDS011;8239;48.594;8.598;2023-08-24T00:11:46;10.68;;;9.38;;
16262;SDS011;8239;48.594;8.598;2023-08-24T00:14:13;9.93;;;9.13;;
16262;SDS011;8239;48.594;8.598;2023-08-24T00:16:42;10.75;;;9.75;;
16262;SDS011;8239;48.594;8.598;2023-08-24T00:19:10;10.60;;;9.68;;
16262;SDS011;8239;48.594;8.598;2023-08-24T00:21:37;10.50;;;9.45;;
16262;SDS011;8239;48.594;8.598;2023-08-24T00:24:04;10.25;;;9.35;;
16262;SDS011;8239;48.594;8.598;2023-08-24T00:26:31;10.55;;;9.50;;
16262;SDS011;8239;48.594;8.598;2023-08-24T00:28:58;10.10;;;9.20;;
16262;SDS011;8239;48.594;8.598;2023-08-24T00:31:25;10.73;;;9.82;;
16262;SDS011;8239;48.594;8.598;2023-08-24T00:33:52;10.60;;;9.68;;
16262;SDS011;8239;48.594;8.598;2023-08-24T00:36:20;10.23;;;9.30;;
16262;SDS011;8239;48.594;8.598;2023-08-24T00:38:48;10.25;;;9.13;;
16262;SDS011;8239;48.594;8.598;2023-08-24T00:41:16;10.73;;;9.82;;
16262;SDS011;8239;48.594;8.598;2023-08-24T00:43:44;9.88;;;9.07;;
16262;SDS011;8239;48.594;8.598;2023-08-24T00:46:11;10.90;;;9.90;;
16262;SDS011;8239;48.594;8.598;2023-08-24T00:48:38;10.00;;;9.07;;
16262;SDS011;8239;48.594;8.598;2023-08-24T00:51:05;10.63;;;9.73;;
16262;SDS011;8239;48.594;8.598;2023-08-24T00:53:34;11.57;;;9.98;;
16262;SDS011;8239;48.594;8.598;2023-08-24T00:56:03;10.75;;;9.75;;
16262;SDS011;8239;48.594;8.598;2023-08-24T00:58:31;11.18;;;10.23;;
16262;SDS011;8239;48.594;8.598;2023-08-24T01:00:59;10.98;;;10.07;;
16262;SDS011;8239;48.594;8.598;2023-08-24T01:03:26;10.88;;;9.98;;
16262;SDS011;8239;48.594;8.598;2023-08-24T01:05:53;11.05;;;10.05;;
16262;SDS011;8239;48.594;8.598;2023-08-24T01:08:20;10.85;;;9.90;;
16262;SDS011;8239;48.594;8.598;2023-08-24T01:10:50;10.45;;;9.52;;
16262;SDS011;8239;48.594;8.598;2023-08-24T01:13:25;11.02;;;9.93;;
16262;SDS011;8239;48.594;8.598;2023-08-24T01:15:59;11.27;;;10.32;;
16262;SDS011;8239;48.594;8.598;2023-08-24T01:18:29;11.43;;;10.43;;
16262;SDS011;8239;48.594;8.598;2023-08-24T01:20:57;10.68;;;9.68;;
16262;SDS011;8239;48.594;8.598;2023-08-24T01:23:32;10.52;;;9.63;;
16262;SDS011;8239;48.594;8.598;2023-08-24T01:26:06;10.60;;;9.52;;
16262;SDS011;8239;48.594;8.598;2023-08-24T01:28:35;11.43;;;10.23;;
16262;SDS011;8239;48.594;8.598;2023-08-24T01:31:03;10.52;;;9.55;;
16262;SDS011;8239;48.594;8.598;2023-08-24T01:33:30;11.35;;;9.77;;
16262;SDS011;8239;48.594;8.598;2023-08-24T01:36:00;10.98;;;9.80;;
16262;SDS011;8239;48.594;8.598;2023-08-24T01:38:27;11.23;;;10.13;;
16262;SDS011;8239;48.594;8.598;2023-08-24T01:40:59;10.35;;;9.48;;
16262;SDS011;8239;48.594;8.598;2023-08-24T01:43:35;10.63;;;9.65;;
16262;SDS011;8239;48.594;8.598;2023-08-24T01:46:05;10.82;;;9.90;;
16262;SDS011;8239;48.594;8.598;2023-08-24T01:48:34;10.25;;;9.25;;
16262;SDS011;8239;48.594;8.598;2023-08-24T01:51:02;10.27;;;9.27;;
16262;SDS011;8239;48.594;8.598;2023-08-24T01:53:30;10.35;;;9.40;;
16262;SDS011;8239;48.594;8.598;2023-08-24T01:55:58;10.93;;;9.93;;
16262;SDS011;8239;48.594;8.598;2023-08-24T01:58:25;10.95;;;9.95;;
16262;SDS011;8239;48.594;8.598;2023-08-24T02:00:53;11.15;;;10.15;;
16262;SDS011;8239;48.594;8.598;2023-08-24T02:03:20;10.30;;;9.40;;
16262;SDS011;8239;48.594;8.598;2023-08-24T02:05:47;10.40;;;9.50;;
16262;SDS011;8239;48.594;8.598;2023-08-24T02:08:14;10.52;;;9.60;;
16262;SDS011;8239;48.594;8.598;2023-08-24T02:10:41;10.63;;;9.63;;
16262;SDS011;8239;48.594;8.598;2023-08-24T02:13:08;10.73;;;9.75;;
16262;SDS011;8239;48.594;8.598;2023-08-24T02:15:37;9.90;;;9.00;;
16262;SDS011;8239;48.594;8.598;2023-08-24T02:18:05;10.68;;;9.70;;
16262;SDS011;8239;48.594;8.598;2023-08-24T02:20:34;10.45;;;9.45;;
16262;SDS011;8239;48.594;8.598;2023-08-24T02:23:01;9.88;;;9.00;;
16262;SDS011;8239;48.594;8.598;2023-08-24T02:25:28;10.00;;;9.20;;
16262;SDS011;8239;48.594;8.598;2023-08-24T02:27:56;9.57;;;8.77;;
16262;SDS011;8239;48.594;8.598;2023-08-24T02:30:22;11.13;;;10.18;;
16262;SDS011;8239;48.594;8.598;2023-08-24T02:32:49;11.95;;;10.77;;
16262;SDS011;8239;48.594;8.598;2023-08-24T02:35:18;11.23;;;10.27;;
16262;SDS011;8239;48.594;8.598;2023-08-24T02:37:45;11.60;;;10.50;;
16262;SDS011;8239;48.594;8.598;2023-08-24T02:40:12;11.27;;;10.25;;
16262;SDS011;8239;48.594;8.598;2023-08-24T02:42:38;11.15;;;10.13;;
16262;SDS011;8239;48.594;8.598;2023-08-24T02:45:06;11.38;;;9.95;;
16262;SDS011;8239;48.594;8.598;2023-08-24T02:47:33;10.48;;;9.48;;
16262;SDS011;8239;48.594;8.598;2023-08-24T02:50:01;12.20;;;10.90;;
16262;SDS011;8239;48.594;8.598;2023-08-24T02:52:31;12.27;;;11.18;;
16262;SDS011;8239;48.594;8.598;2023-08-24T02:54:57;12.30;;;11.00;;
16262;SDS011;8239;48.594;8.598;2023-08-24T02:57:24;12.55;;;11.35;;
16262;SDS011;8239;48.594;8.598;2023-08-24T02:59:51;12.48;;;11.27;;
16262;SDS011;8239;48.594;8.598;2023-08-24T03:02:18;11.20;;;10.20;;
16262;SDS011;8239;48.594;8.598;2023-08-24T03:04:45;10.77;;;9.88;;
16262;SDS011;8239;48.594;8.598;2023-08-24T03:07:12;11.52;;;10.63;;
16262;SDS011;8239;48.594;8.598;2023-08-24T03:09:40;13.02;;;11.18;;
16262;SDS011;8239;48.594;8.598;2023-08-24T03:12:08;12.15;;;10.45;;
16262;SDS011;8239;48.594;8.598;2023-08-24T03:14:35;11.65;;;10.65;;
16262;SDS011;8239;48.594;8.598;2023-08-24T03:17:02;11.52;;;10.60;;
16262;SDS011;8239;48.594;8.598;2023-08-24T03:19:30;12.95;;;11.75;;
16262;SDS011;8239;48.594;8.598;2023-08-24T03:21:57;12.27;;;11.20;;
16262;SDS011;8239;48.594;8.598;2023-08-24T03:24:24;13.00;;;11.75;;
16262;SDS011;8239;48.594;8.598;2023-08-24T03:26:52;13.90;;;12.60;;
16262;SDS011;8239;48.594;8.598;2023-08-24T03:29:19;12.70;;;11.60;;
16262;SDS011;8239;48.594;8.598;2023-08-24T03:31:46;12.93;;;11.80;;
16262;SDS011;8239;48.594;8.598;2023-08-24T03:34:13;12.75;;;11.50;;
16262;SDS011;8239;48.594;8.598;2023-08-24T03:36:41;12.40;;;11.27;;
16262;SDS011;8239;48.594;8.598;2023-08-24T03:39:08;12.25;;;11.15;;
16262;SDS011;8239;48.594;8.598;2023-08-24T03:41:36;12.63;;;11.30;;
16262;SDS011;8239;48.594;8.598;2023-08-24T03:44:05;12.70;;;11.25;;
16262;SDS011;8239;48.594;8.598;2023-08-24T03:46:31;12.90;;;11.60;;
16262;SDS011;8239;48.594;8.598;2023-08-24T03:48:58;13.23;;;11.93;;
16262;SDS011;8239;48.594;8.598;2023-08-24T03:51:25;11.95;;;10.85;;
16262;SDS011;8239;48.594;8.598;2023-08-24T03:53:52;12.68;;;11.48;;
16262;SDS011;8239;48.594;8.598;2023-08-24T03:56:19;12.55;;;11.48;;
16262;SDS011;8239;48.594;8.598;2023-08-24T03:58:47;13.15;;;11.95;;
16262;SDS011;8239;48.594;8.598;2023-08-24T04:01:15;13.38;;;12.07;;
16262;SDS011;8239;48.594;8.598;2023-08-24T04:03:42;12.63;;;11.57;;
16262;SDS011;8239;48.594;8.598;2023-08-24T04:06:09;13.00;;;11.80;;
16262;SDS011;8239;48.594;8.598;2023-08-24T04:08:36;13.18;;;11.88;;
16262;SDS011;8239;48.594;8.598;2023-08-24T04:11:03;12.27;;;11.18;;
16262;SDS011;8239;48.594;8.598;2023-08-24T04:13:30;13.32;;;12.02;;
16262;SDS011;8239;48.594;8.598;2023-08-24T04:15:57;13.18;;;12.02;;
16262;SDS011;8239;48.594;8.598;2023-08-24T04:18:25;13.27;;;11.98;;
16262;SDS011;8239;48.594;8.598;2023-08-24T04:20:52;12.80;;;11.63;;
16262;SDS011;8239;48.594;8.598;2023-08-24T04:23:23;13.15;;;12.10;;
16262;SDS011;8239;48.594;8.598;2023-08-24T04:25:51;12.68;;;11.57;;
16262;SDS011;8239;48.594;8.598;2023-08-24T04:28:18;13.40;;;12.00;;
16262;SDS011;8239;48.594;8.598;2023-08-24T04:30:49;12.52;;;11.32;;
16262;SDS011;8239;48.594;8.598;2023-08-24T04:33:16;12.32;;;11.23;;
16262;SDS011;8239;48.594;8.598;2023-08-24T04:35:46;12.57;;;11.48;;
16262;SDS011;8239;48.594;8.598;2023-08-24T04:38:14;13.02;;;11.82;;
16262;SDS011;8239;48.594;8.598;2023-08-24T04:40:48;13.57;;;12.27;;
16262;SDS011;8239;48.594;8.598;2023-08-24T04:43:16;13.73;;;12.52;;
16262;SDS011;8239;48.594;8.598;2023-08-24T04:45:42;13.55;;;12.40;;
16262;SDS011;8239;48.594;8.598;2023-08-24T04:48:11;13.18;;;11.98;;
16262;SDS011;8239;48.594;8.598;2023-08-24T04:50:38;13.00;;;11.63;;
16262;SDS011;8239;48.594;8.598;2023-08-24T04:53:06;13.15;;;11.95;;
16262;SDS011;8239;48.594;8.598;2023-08-24T04:55:40;12.65;;;11.52;;
16262;SDS011;8239;48.594;8.598;2023-08-24T04:58:07;12.73;;;11.50;;
16262;SDS011;8239;48.594;8.598;2023-08-24T05:00:34;12.15;;;11.10;;
16262;SDS011;8239;48.594;8.598;2023-08-24T05:03:01;12.13;;;11.13;;
16262;SDS011;8239;48.594;8.598;2023-08-24T05:05:29;11.35;;;10.25;;
16262;SDS011;8239;48.594;8.598;2023-08-24T05:07:56;11.90;;;10.23;;
16262;SDS011;8239;48.594;8.598;2023-08-24T05:10:25;10.10;;;9.10;;
16262;SDS011;8239;48.594;8.598;2023-08-24T05:12:52;10.88;;;9.75;;
16262;SDS011;8239;48.594;8.598;2023-08-24T05:15:19;11.55;;;10.35;;
16262;SDS011;8239;48.594;8.598;2023-08-24T05:17:46;11.30;;;9.43;;
16262;SDS011;8239;48.594;8.598;2023-08-24T05:20:13;10.63;;;9.05;;
16262;SDS011;8239;48.594;8.598;2023-08-24T05:22:40;11.05;;;9.27;;
16262;SDS011;8239;48.594;8.598;2023-08-24T05:25:07;9.50;;;8.68;;
16262;SDS011;8239;48.594;8.598;2023-08-24T05:27:35;11.20;;;8.60;;
16262;SDS011;8239;48.594;8.598;2023-08-24T05:30:03;9.55;;;8.70;;
16262;SDS011;8239;48.594;8.598;2023-08-24T05:32:30;9.40;;;8.50;;
16262;SDS011;8239;48.594;8.598;2023-08-24T05:35:00;9.00;;;8.10;;
16262;SDS011;8239;48.594;8.598;2023-08-24T05:37:27;8.50;;;7.70;;
16262;SDS011;8239;48.594;8.598;2023-08-24T05:39:54;9.00;;;8.20;;
16262;SDS011;8239;48.594;8.598;2023-08-24T05:42:21;11.65;;;8.55;;
16262;SDS011;8239;48.594;8.598;2023-08-24T05:44:50;9.27;;;8.32;;
16262;SDS011;8239;48.594;8.598;2023-08-24T05:47:17;9.85;;;9.00;;
16262;SDS011;8239;48.594;8.598;2023-08-24T05:49:44;9.75;;;8.90;;
16262;SDS011;8239;48.594;8.598;2023-08-24T05:52:11;9.38;;;8.57;;
16262;SDS011;8239;48.594;8.598;2023-08-24T05:54:38;9.50;;;8.65;;
16262;SDS011;8239;48.594;8.598;2023-08-24T05:57:05;9.75;;;8.95;;
16262;SDS011;8239;48.594;8.598;2023-08-24T05:59:32;9.55;;;8.75;;
16262;SDS011;8239;48.594;8.598;2023-08-24T06:02:01;9.38;;;8.50;;
16262;SDS011;8239;48.594;8.598;2023-08-24T06:04:27;8.70;;;7.85;;
16262;SDS011;8239;48.594;8.598;2023-08-24T06:06:54;8.63;;;7.28;;
16262;SDS011;8239;48.594;8.598;2023-08-24T06:09:21;7.50;;;6.90;;
16262;SDS011;8239;48.594;8.598;2023-08-24T06:11:48;7.68;;;7.07;;
16262;SDS011;8239;48.594;8.598;2023-08-24T06:14:15;7.78;;;7.07;;
16262;SDS011;8239;48.594;8.598;2023-08-24T06:16:42;7.05;;;6.55;;
16262;SDS011;8239;48.594;8.598;2023-08-24T06:19:10;7.88;;;7.18;;
16262;SDS011;8239;48.594;8.598;2023-08-24T06:21:37;7.68;;;6.90;;
16262;SDS011;8239;48.594;8.598;2023-08-24T06:24:04;7.80;;;7.03;;
16262;SDS011;8239;48.594;8.598;2023-08-24T06:26:31;8.23;;;7.43;;
16262;SDS011;8239;48.594;8.598;2023-08-24T06:28:58;8.65;;;7.30;;
16262;SDS011;8239;48.594;8.598;2023-08-24T06:31:25;7.55;;;6.95;;
16262;SDS011;8239;48.594;8.598;2023-08-24T06:33:52;7.57;;;6.70;;
16262;SDS011;8239;48.594;8.598;2023-08-24T06:36:20;7.82;;;7.03;;
16262;SDS011;8239;48.594;8.598;2023-08-24T06:38:47;8.65;;;6.50;;
16262;SDS011;8239;48.594;8.598;2023-08-24T06:41:14;7.82;;;6.28;;
16262;SDS011;8239;48.594;8.598;2023-08-24T06:43:41;7.43;;;6.15;;
16262;SDS011;8239;48.594;8.598;2023-08-24T06:46:08;7.53;;;6.82;;
16262;SDS011;8239;48.594;8.598;2023-08-24T06:48:35;7.35;;;6.75;;
16262;SDS011;8239;48.594;8.598;2023-08-24T06:51:02;6.63;;;5.93;;
16262;SDS011;8239;48.594;8.598;2023-08-24T06:53:31;9.55;;;6.25;;
16262;SDS011;8239;48.594;8.598;2023-08-24T06:55:58;6.53;;;6.00;;
16262;SDS011;8239;48.594;8.598;2023-08-24T06:58:25;6.72;;;6.13;;
16262;SDS011;8239;48.594;8.598;2023-08-24T07:00:52;6.28;;;5.68;;
16262;SDS011;8239;48.594;8.598;2023-08-24T07:03:20;7.13;;;6.07;;
16262;SDS011;8239;48.594;8.598;2023-08-24T07:05:49;6.53;;;5.93;;
16262;SDS011;8239;48.594;8.598;2023-08-24T07:08:16;6.82;;;5.70;;
16262;SDS011;8239;48.594;8.598;2023-08-24T07:10:44;6.35;;;5.85;;
16262;SDS011;8239;48.594;8.598;2023-08-24T07:13:11;6.47;;;5.88;;
16262;SDS011;8239;48.594;8.598;2023-08-24T07:15:38;6.70;;;5.70;;
16262;SDS011;8239;48.594;8.598;2023-08-24T07:18:05;6.70;;;5.80;;
16262;SDS011;8239;48.594;8.598;2023-08-24T07:20:33;6.80;;;5.28;;
16262;SDS011;8239;48.594;8.598;2023-08-24T07:23:01;5.28;;;4.78;;
16262;SDS011;8239;48.594;8.598;2023-08-24T07:25:28;5.57;;;5.00;;
16262;SDS011;8239;48.594;8.598;2023-08-24T07:27:56;4.90;;;4.50;;
16262;SDS011;8239;48.594;8.598;2023-08-24T07:30:24;5.15;;;4.53;;
16262;SDS011;8239;48.594;8.598;2023-08-24T07:32:52;6.65;;;4.25;;
16262;SDS011;8239;48.594;8.598;2023-08-24T07:35:19;5.25;;;4.18;;
16262;SDS011;8239;48.594;8.598;2023-08-24T07:37:46;8.23;;;4.30;;
16262;SDS011;8239;48.594;8.598;2023-08-24T07:40:14;4.32;;;3.95;;
16262;SDS011;8239;48.594;8.598;2023-08-24T07:42:43;5.03;;;4.10;;
16262;SDS011;8239;48.594;8.598;2023-08-24T07:45:12;6.28;;;4.07;;
16262;SDS011;8239;48.594;8.598;2023-08-24T07:47:40;4.47;;;4.05;;
16262;SDS011;8239;48.594;8.598;2023-08-24T07:50:07;5.82;;;3.92;;
16262;SDS011;8239;48.594;8.598;2023-08-24T07:55:02;4.50;;;4.10;;
16262;SDS011;8239;48.594;8.598;2023-08-24T07:57:32;7.95;;;4.82;;
16262;SDS011;8239;48.594;8.598;2023-08-24T07:59:59;4.93;;;4.53;;
16262;SDS011;8239;48.594;8.598;2023-08-24T08:02:27;4.15;;;3.83;;
16262;SDS011;8239;48.594;8.598;2023-08-24T08:04:56;5.55;;;4.00;;
16262;SDS011;8239;48.594;8.598;2023-08-24T08:07:23;5.68;;;4.35;;
16262;SDS011;8239;48.594;8.598;2023-08-24T08:09:50;4.00;;;3.70;;
16262;SDS011;8239;48.594;8.598;2023-08-24T08:12:17;4.82;;;4.10;;
16262;SDS011;8239;48.594;8.598;2023-08-24T08:14:44;5.60;;;4.00;;
16262;SDS011;8239;48.594;8.598;2023-08-24T08:17:11;4.75;;;4.32;;
16262;SDS011;8239;48.594;8.598;2023-08-24T08:19:40;5.30;;;3.90;;
16262;SDS011;8239;48.594;8.598;2023-08-24T08:22:07;4.22;;;3.92;;
16262;SDS011;8239;48.594;8.598;2023-08-24T08:24:33;4.57;;;3.63;;
16262;SDS011;8239;48.594;8.598;2023-08-24T08:27:00;4.00;;;3.70;;
16262;SDS011;8239;48.594;8.598;2023-08-24T08:29:27;5.95;;;3.90;;
16262;SDS011;8239;48.594;8.598;2023-08-24T08:31:54;6.38;;;3.90;;
16262;SDS011;8239;48.594;8.598;2023-08-24T08:34:21;4.07;;;3.60;;
16262;SDS011;8239;48.594;8.598;2023-08-24T08:36:50;4.45;;;3.65;;
16262;SDS011;8239;48.594;8.598;2023-08-24T08:39:16;3.85;;;3.40;;
16262;SDS011;8239;48.594;8.598;2023-08-24T08:41:44;3.88;;;3.50;;
16262;SDS011;8239;48.594;8.598;2023-08-24T08:44:12;4.20;;;3.70;;
16262;SDS011;8239;48.594;8.598;2023-08-24T08:46:41;4.13;;;3.60;;
16262;SDS011;8239;48.594;8.598;2023-08-24T08:49:09;4.10;;;3.80;;
16262;SDS011;8239;48.594;8.598;2023-08-24T08:51:40;4.15;;;3.78;;
16262;SDS011;8239;48.594;8.598;2023-08-24T08:54:09;4.00;;;3.67;;
16262;SDS011;8239;48.594;8.598;2023-08-24T08:56:37;4.93;;;3.75;;
16262;SDS011;8239;48.594;8.598;2023-08-24T08:59:04;3.90;;;3.60;;
16262;SDS011;8239;48.594;8.598;2023-08-24T09:01:36;4.75;;;3.60;;
16262;SDS011;8239;48.594;8.598;2023-08-24T09:04:04;3.90;;;3.60;;
16262;SDS011;8239;48.594;8.598;2023-08-24T09:06:32;4.53;;;3.65;;
16262;SDS011;8239;48.594;8.598;2023-08-24T09:09:00;4.97;;;3.80;;
16262;SDS011;8239;48.594;8.598;2023-08-24T09:11:29;4.18;;;3.78;;
16262;SDS011;8239;48.594;8.598;2023-08-24T09:13:55;18.20;;;5.22;;
16262;SDS011;8239;48.594;8.598;2023-08-24T09:16:22;4.72;;;4.32;;
16262;SDS011;8239;48.594;8.598;2023-08-24T09:18:54;4.45;;;3.95;;
16262;SDS011;8239;48.594;8.598;2023-08-24T09:21:22;4.38;;;3.97;;
16262;SDS011;8239;48.594;8.598;2023-08-24T09:23:52;5.68;;;4.20;;
16262;SDS011;8239;48.594;8.598;2023-08-24T09:26:26;6.80;;;4.60;;
16262;SDS011;8239;48.594;8.598;2023-08-24T09:28:55;5.18;;;4.43;;
16262;SDS011;8239;48.594;8.598;2023-08-24T09:31:23;5.45;;;4.10;;
16262;SDS011;8239;48.594;8.598;2023-08-24T09:33:51;5.10;;;4.47;;
16262;SDS011;8239;48.594;8.598;2023-08-24T09:36:26;4.80;;;4.40;;
16262;SDS011;8239;48.594;8.598;2023-08-24T09:38:58;6.88;;;4.82;;
16262;SDS011;8239;48.594;8.598;2023-08-24T09:41:37;6.22;;;4.47;;
16262;SDS011;8239;48.594;8.598;2023-08-24T09:44:05;8.07;;;4.93;;
16262;SDS011;8239;48.594;8.598;2023-08-24T09:46:32;4.80;;;4.40;;
16262;SDS011;8239;48.594;8.598;2023-08-24T09:48:59;4.90;;;4.47;;
16262;SDS011;8239;48.594;8.598;2023-08-24T09:51:26;4.95;;;4.45;;
16262;SDS011;8239;48.594;8.598;2023-08-24T09:53:56;4.90;;;4.38;;
16262;SDS011;8239;48.594;8.598;2023-08-24T09:56:25;4.95;;;4.53;;
16262;SDS011;8239;48.594;8.598;2023-08-24T09:58:55;4.55;;;4.25;;
16262;SDS011;8239;48.594;8.598;2023-08-24T10:01:26;4.93;;;4.63;;
16262;SDS011;8239;48.594;8.598;2023-08-24T10:03:54;4.63;;;4.20;;
16262;SDS011;8239;48.594;8.598;2023-08-24T10:06:23;4.60;;;4.30;;
16262;SDS011;8239;48.594;8.598;2023-08-24T10:08:54;5.10;;;4.38;;
16262;SDS011;8239;48.594;8.598;2023-08-24T10:11:25;5.10;;;4.20;;
16262;SDS011;8239;48.594;8.598;2023-08-24T10:13:58;4.45;;;4.05;;
16262;SDS011;8239;48.594;8.598;2023-08-24T10:16:32;4.63;;;4.22;;
16262;SDS011;8239;48.594;8.598;2023-08-24T10:19:00;4.72;;;4.32;;
16262;SDS011;8239;48.594;8.598;2023-08-24T10:21:28;4.78;;;4.38;;
16262;SDS011;8239;48.594;8.598;2023-08-24T10:23:55;5.45;;;4.22;;
16262;SDS011;8239;48.594;8.598;2023-08-24T10:26:23;6.10;;;4.10;;
16262;SDS011;8239;48.594;8.598;2023-08-24T10:28:50;4.82;;;4.43;;
16262;SDS011;8239;48.594;8.598;2023-08-24T10:31:20;5.80;;;4.32;;
16262;SDS011;8239;48.594;8.598;2023-08-24T10:33:47;6.20;;;4.78;;
16262;SDS011;8239;48.594;8.598;2023-08-24T10:36:16;5.07;;;4.57;;
16262;SDS011;8239;48.594;8.598;2023-08-24T10:38:43;5.70;;;4.65;;
16262;SDS011;8239;48.594;8.598;2023-08-24T10:41:10;5.45;;;4.65;;
16262;SDS011;8239;48.594;8.598;2023-08-24T10:43:39;6.38;;;4.80;;
16262;SDS011;8239;48.594;8.598;2023-08-24T10:46:11;5.80;;;4.32;;
16262;SDS011;8239;48.594;8.598;2023-08-24T10:48:58;5.30;;;4.60;;
16262;SDS011;8239;48.594;8.598;2023-08-24T10:51:26;5.88;;;5.28;;
16262;SDS011;8239;48.594;8.598;2023-08-24T10:53:55;5.03;;;4.70;;
16262;SDS011;8239;48.594;8.598;2023-08-24T10:56:29;6.57;;;4.88;;
16262;SDS011;8239;48.594;8.598;2023-08-24T10:59:09;5.65;;;4.97;;
16262;SDS011;8239;48.594;8.598;2023-08-24T11:01:38;5.50;;;4.90;;
16262;SDS011;8239;48.594;8.598;2023-08-24T11:04:07;5.05;;;4.55;;
16262;SDS011;8239;48.594;8.598;2023-08-24T11:06:34;5.88;;;4.68;;
16262;SDS011;8239;48.594;8.598;2023-08-24T11:09:16;5.78;;;5.18;;
16262;SDS011;8239;48.594;8.598;2023-08-24T11:11:54;5.07;;;4.68;;
16262;SDS011;8239;48.594;8.598;2023-08-24T11:14:22;5.65;;;4.60;;
16262;SDS011;8239;48.594;8.598;2023-08-24T11:16:51;5.40;;;4.90;;
16262;SDS011;8239;48.594;8.598;2023-08-24T11:19:20;7.72;;;4.80;;
16262;SDS011;8239;48.594;8.598;2023-08-24T11:21:47;5.00;;;4.60;;
16262;SDS011;8239;48.594;8.598;2023-08-24T11:24:15;6.95;;;4.85;;
16262;SDS011;8239;48.594;8.598;2023-08-24T11:26:43;5.07;;;4.68;;
16262;SDS011;8239;48.594;8.598;2023-08-24T11:29:11;8.82;;;5.00;;
16262;SDS011;8239;48.594;8.598;2023-08-24T11:31:38;6.05;;;4.50;;
16262;SDS011;8239;48.594;8.598;2023-08-24T11:34:06;7.93;;;4.80;;
16262;SDS011;8239;48.594;8.598;2023-08-24T11:36:42;6.65;;;4.82;;
16262;SDS011;8239;48.594;8.598;2023-08-24T11:39:17;4.93;;;4.53;;
16262;SDS011;8239;48.594;8.598;2023-08-24T11:41:45;5.78;;;5.00;;
16262;SDS011;8239;48.594;8.598;2023-08-24T11:44:22;5.20;;;4.80;;
16262;SDS011;8239;48.594;8.598;2023-08-24T11:46:49;23.15;;;6.30;;
16262;SDS011;8239;48.594;8.598;2023-08-24T11:49:16;8.02;;;5.00;;
16262;SDS011;8239;48.594;8.598;2023-08-24T11:51:45;5.63;;;5.13;;
16262;SDS011;8239;48.594;8.598;2023-08-24T11:54:15;6.40;;;5.07;;
16262;SDS011;8239;48.594;8.598;2023-08-24T11:56:42;9.55;;;4.93;;
16262;SDS011;8239;48.594;8.598;2023-08-24T11:59:11;6.50;;;5.05;;
16262;SDS011;8239;48.594;8.598;2023-08-24T12:01:39;7.45;;;5.22;;
16262;SDS011;8239;48.594;8.598;2023-08-24T12:04:07;6.75;;;4.95;;
16262;SDS011;8239;48.594;8.598;2023-08-24T12:06:34;6.10;;;4.88;;
16262;SDS011;8239;48.594;8.598;2023-08-24T12:09:05;5.70;;;5.07;;
16262;SDS011;8239;48.594;8.598;2023-08-24T12:11:35;6.18;;;5.35;;
16262;SDS011;8239;48.594;8.598;2023-08-24T12:14:02;7.15;;;4.75;;
16262;SDS011;8239;48.594;8.598;2023-08-24T12:16:30;5.80;;;5.05;;
16262;SDS011;8239;48.594;8.598;2023-08-24T12:18:59;5.50;;;4.80;;
16262;SDS011;8239;48.594;8.598;2023-08-24T12:21:28;6.60;;;5.20;;
16262;SDS011;8239;48.594;8.598;2023-08-24T12:23:56;11.57;;;5.78;;
16262;SDS011;8239;48.594;8.598;2023-08-24T12:26:26;12.88;;;6.20;;
16262;SDS011;8239;48.594;8.598;2023-08-24T12:28:55;5.47;;;4.97;;
16262;SDS011;8239;48.594;8.598;2023-08-24T12:31:27;7.53;;;5.68;;
16262;SDS011;8239;48.594;8.598;2023-08-24T12:33:59;8.77;;;5.20;;
16262;SDS011;8239;48.594;8.598;2023-08-24T12:36:27;7.55;;;4.90;;
16262;SDS011;8239;48.594;8.598;2023-08-24T12:38:54;8.10;;;5.60;;
16262;SDS011;8239;48.594;8.598;2023-08-24T12:41:21;15.20;;;6.57;;
16262;SDS011;8239;48.594;8.598;2023-08-24T12:43:51;7.93;;;5.85;;
16262;SDS011;8239;48.594;8.598;2023-08-24T12:46:18;6.30;;;5.47;;
16262;SDS011;8239;48.594;8.598;2023-08-24T12:48:44;7.95;;;5.68;;
16262;SDS011;8239;48.594;8.598;2023-08-24T12:51:11;6.68;;;5.13;;
16262;SDS011;8239;48.594;8.598;2023-08-24T12:53:39;9.80;;;5.25;;
16262;SDS011;8239;48.594;8.598;2023-08-24T12:56:05;6.38;;;5.40;;
16262;SDS011;8239;48.594;8.598;2023-08-24T12:58:32;6.47;;;5.80;;
16262;SDS011;8239;48.594;8.598;2023-08-24T13:01:01;9.02;;;5.55;;
16262;SDS011;8239;48.594;8.598;2023-08-24T13:03:28;9.15;;;5.18;;
16262;SDS011;8239;48.594;8.598;2023-08-24T13:05:55;8.32;;;5.40;;
16262;SDS011;8239;48.594;8.598;2023-08-24T13:08:22;7.97;;;5.20;;
16262;SDS011;8239;48.594;8.598;2023-08-24T13:10:51;14.68;;;5.63;;
16262;SDS011;8239;48.594;8.598;2023-08-24T13:13:18;10.50;;;5.95;;
16262;SDS011;8239;48.594;8.598;2023-08-24T13:15:47;13.52;;;5.70;;
16262;SDS011;8239;48.594;8.598;2023-08-24T13:18:16;5.93;;;5.30;;
16262;SDS011;8239;48.594;8.598;2023-08-24T13:20:44;6.90;;;5.60;;
16262;SDS011;8239;48.594;8.598;2023-08-24T13:23:11;10.48;;;5.47;;
16262;SDS011;8239;48.594;8.598;2023-08-24T13:25:38;7.13;;;5.35;;
16262;SDS011;8239;48.594;8.598;2023-08-24T13:28:06;7.60;;;5.05;;
16262;SDS011;8239;48.594;8.598;2023-08-24T13:30:33;11.65;;;5.60;;
16262;SDS011;8239;48.594;8.598;2023-08-24T13:33:00;8.40;;;5.13;;
16262;SDS011;8239;48.594;8.598;2023-08-24T13:35:29;7.70;;;5.38;;
16262;SDS011;8239;48.594;8.598;2023-08-24T13:43:00;9.43;;;5.97;;
16262;SDS011;8239;48.594;8.598;2023-08-24T13:45:27;7.32;;;5.85;;
16262;SDS011;8239;48.594;8.598;2023-08-24T13:47:56;10.95;;;5.75;;
16262;SDS011;8239;48.594;8.598;2023-08-24T13:50:23;6.22;;;5.30;;
16262;SDS011;8239;48.594;8.598;2023-08-24T13:52:51;8.27;;;5.68;;
16262;SDS011;8239;48.594;8.598;2023-08-24T13:55:18;8.82;;;5.65;;
16262;SDS011;8239;48.594;8.598;2023-08-24T13:57:45;8.02;;;5.57;;
16262;SDS011;8239;48.594;8.598;2023-08-24T14:00:13;6.63;;;5.35;;
16262;SDS011;8239;48.594;8.598;2023-08-24T14:02:41;10.02;;;5.70;;
16262;SDS011;8239;48.594;8.598;2023-08-24T14:05:13;7.88;;;6.00;;
16262;SDS011;8239;48.594;8.598;2023-08-24T14:07:40;7.00;;;5.60;;
16262;SDS011;8239;48.594;8.598;2023-08-24T14:10:09;6.95;;;5.50;;
16262;SDS011;8239;48.594;8.598;2023-08-24T14:12:36;8.13;;;6.03;;
16262;SDS011;8239;48.594;8.598;2023-08-24T14:15:04;6.43;;;5.63;;
16262;SDS011;8239;48.594;8.598;2023-08-24T14:17:32;8.02;;;6.00;;
16262;SDS011;8239;48.594;8.598;2023-08-24T14:20:00;7.50;;;5.78;;
16262;SDS011;8239;48.594;8.598;2023-08-24T14:22:29;10.15;;;6.55;;
16262;SDS011;8239;48.594;8.598;2023-08-24T14:24:56;9.57;;;6.45;;
16262;SDS011;8239;48.594;8.598;2023-08-24T14:27:24;12.07;;;6.32;;
16262;SDS011;8239;48.594;8.598;2023-08-24T14:29:51;7.53;;;6.32;;
16262;SDS011;8239;48.594;8.598;2023-08-24T14:32:18;8.45;;;5.57;;
16262;SDS011;8239;48.594;8.598;2023-08-24T14:34:45;8.13;;;6.05;;
16262;SDS011;8239;48.594;8.598;2023-08-24T14:37:12;7.68;;;6.50;;
16262;SDS011;8239;48.594;8.598;2023-08-24T14:39:38;7.10;;;6.43;;
16262;SDS011;8239;48.594;8.598;2023-08-24T14:42:05;8.18;;;7.15;;
16262;SDS011;8239;48.594;8.598;2023-08-24T14:44:34;7.72;;;6.95;;
16262;SDS011;8239;48.594;8.598;2023-08-24T14:47:01;8.10;;;7.30;;
16262;SDS011;8239;48.594;8.598;2023-08-24T14:49:28;9.23;;;7.72;;
16262;SDS011;8239;48.594;8.598;2023-08-24T14:51:55;9.15;;;7.97;;
16262;SDS011;8239;48.594;8.598;2023-08-24T14:54:22;8.05;;;7.35;;
16262;SDS011;8239;48.594;8.598;2023-08-24T14:56:49;8.02;;;6.53;;
16262;SDS011;8239;48.594;8.598;2023-08-24T14:59:16;7.60;;;7.03;;
16262;SDS011;8239;48.594;8.598;2023-08-24T15:01:44;7.35;;;6.55;;
16262;SDS011;8239;48.594;8.598;2023-08-24T15:04:11;7.30;;;6.65;;
16262;SDS011;8239;48.594;8.598;2023-08-24T15:06:38;8.07;;;6.30;;